createdAt,value
2023-02-06T00:02:10.493Z,70.99
2023-02-06T00:05:15.218Z,70.97
2023-02-06T00:08:18.655Z,71.24
2023-02-06T00:11:23.871Z,68.99
2023-02-06T00:14:27.613Z,67.34
2023-02-06T00:17:36.534Z,65.91
2023-02-06T00:20:42.992Z,64.76
2023-02-06T00:23:48.155Z,64.85
2023-02-06T00:27:00.664Z,63.45
2023-02-06T00:30:05.975Z,60.45
2023-02-06T00:33:09.385Z,59.74
2023-02-06T00:36:32.686Z,59.35
2023-02-06T00:39:37.588Z,59.62
2023-02-06T00:42:44.569Z,60.12
2023-02-06T00:45:53.635Z,59.96
2023-02-06T00:49:05.013Z,60.23
2023-02-06T00:52:09.790Z,60.20
2023-02-06T00:55:13.922Z,60.33
2023-02-06T00:58:17.439Z,61.00
2023-02-06T01:01:22.294Z,61.53
2023-02-06T01:04:27.994Z,61.37
2023-02-06T01:07:31.955Z,61.69
2023-02-06T01:10:37.556Z,60.61
2023-02-06T01:13:41.917Z,60.51
2023-02-06T01:16:49.762Z,59.33
2023-02-06T01:20:04.481Z,58.74
2023-02-06T01:23:19.911Z,58.39
2023-02-06T01:26:28.302Z,57.84
2023-02-06T01:29:38.092Z,57.13
2023-02-06T01:32:51.356Z,57.40
2023-02-06T01:36:15.226Z,57.56
2023-02-06T01:39:19.891Z,58.09
2023-02-06T01:42:26.796Z,58.48
2023-02-06T01:45:38.238Z,58.62
2023-02-06T01:49:02.430Z,58.89
2023-02-06T01:52:31.687Z,58.63
2023-02-06T01:55:47.111Z,58.09
2023-02-06T01:59:14.089Z,58.45
2023-02-06T02:02:22.653Z,58.55
2023-02-06T02:05:27.399Z,59.33
2023-02-06T02:08:49.017Z,60.06
2023-02-06T02:11:53.858Z,61.38
2023-02-06T02:15:00.161Z,61.85
2023-02-06T02:18:14.643Z,62.47
2023-02-06T02:21:36.397Z,63.76
2023-02-06T02:25:24.805Z,63.03
2023-02-06T02:29:00.103Z,61.98
2023-02-06T02:32:53.369Z,61.45
2023-02-06T02:36:05.069Z,62.46
2023-02-06T02:39:57.384Z,63.04
2023-02-06T02:43:52.681Z,65.25
2023-02-06T02:47:00.986Z,65.29
2023-02-06T02:50:10.396Z,66.48
2023-02-06T02:53:21.902Z,66.93
2023-02-06T02:56:45.146Z,63.17
2023-02-06T02:59:50.941Z,61.57
2023-02-06T03:03:00.640Z,61.01
2023-02-06T03:06:49.328Z,61.59
2023-02-06T03:10:07.295Z,61.60
2023-02-06T03:13:31.930Z,58.51
2023-02-06T03:17:11.851Z,59.89
2023-02-06T03:20:17.354Z,61.73
2023-02-06T03:23:26.122Z,62.49
2023-02-06T03:26:53.389Z,65.00
2023-02-06T03:30:03.146Z,66.93
2023-02-06T03:33:12.022Z,69.77
2023-02-06T03:36:18.440Z,68.74
2023-02-06T03:39:27.981Z,68.92
2023-02-06T03:42:53.655Z,69.62
2023-02-06T03:46:20.314Z,69.80
2023-02-06T03:49:31.911Z,69.16
2023-02-06T03:52:45.643Z,71.81
2023-02-06T03:55:56.893Z,76.15
2023-02-06T03:59:01.848Z,68.98
2023-02-06T04:02:06.180Z,67.64
2023-02-06T04:05:10.358Z,67.05
2023-02-06T04:08:14.292Z,61.28
2023-02-06T04:11:39.559Z,57.52
2023-02-06T04:14:51.740Z,57.45
2023-02-06T04:18:01.792Z,56.57
2023-02-06T04:21:07.222Z,57.38
2023-02-06T04:24:31.991Z,58.18
2023-02-06T04:27:42.018Z,59.47
2023-02-06T04:30:48.989Z,59.57
2023-02-06T04:33:53.154Z,57.90
2023-02-06T04:37:05.856Z,55.60
2023-02-06T04:40:13.262Z,53.43
2023-02-06T04:43:17.022Z,53.16
2023-02-06T04:46:20.227Z,53.06
2023-02-06T04:49:39.914Z,51.61
2023-02-06T04:52:53.016Z,51.07
2023-02-06T04:56:15.365Z,48.98
2023-02-06T04:59:35.489Z,48.72
2023-02-06T05:02:54.123Z,48.02
2023-02-06T05:06:10.389Z,49.33
2023-02-06T05:09:13.460Z,49.96
2023-02-06T05:12:36.536Z,51.71
2023-02-06T05:16:11.750Z,52.96
2023-02-06T05:19:43.653Z,54.46
2023-02-06T05:23:16.465Z,54.91
2023-02-06T05:26:41.525Z,54.64
2023-02-06T05:30:07.759Z,55.71
2023-02-06T05:33:33.706Z,56.91
2023-02-06T05:37:04.247Z,56.95
2023-02-06T05:40:09.770Z,57.34
2023-02-06T05:43:12.638Z,57.23
2023-02-06T05:46:28.481Z,56.90
2023-02-06T05:49:51.597Z,56.50
2023-02-06T05:53:02.146Z,55.15
2023-02-06T05:56:12.644Z,52.64
2023-02-06T05:59:36.544Z,52.32
2023-02-06T06:02:55.096Z,52.83
2023-02-06T06:06:08.397Z,54.06
2023-02-06T06:09:31.735Z,55.03
2023-02-06T06:13:03.518Z,55.58
2023-02-06T06:16:20.083Z,54.77
2023-02-06T06:19:29.618Z,55.25
2023-02-06T06:22:37.166Z,56.04
2023-02-06T06:26:01.785Z,57.00
2023-02-06T06:29:04.798Z,57.75
2023-02-06T06:32:10.667Z,58.03
2023-02-06T06:35:14.049Z,56.02
2023-02-06T06:38:34.571Z,55.54
2023-02-06T06:41:42.068Z,56.68
2023-02-06T06:45:00.358Z,55.51
2023-02-06T06:48:23.594Z,55.75
2023-02-06T06:51:46.222Z,53.96
2023-02-06T06:54:51.952Z,52.71
2023-02-06T06:58:11.565Z,51.36
2023-02-06T07:01:49.448Z,50.26
2023-02-06T07:04:55.374Z,51.40
2023-02-06T07:07:59.171Z,53.28
2023-02-06T07:11:05.005Z,54.59
2023-02-06T07:14:09.189Z,57.40
2023-02-06T07:17:14.272Z,60.85
2023-02-06T07:20:26.752Z,64.11
2023-02-06T07:23:33.917Z,63.73
2023-02-06T07:26:36.958Z,63.16
2023-02-06T07:29:40.028Z,64.23
2023-02-06T07:32:47.463Z,62.17
2023-02-06T07:35:52.693Z,60.91
2023-02-06T07:39:02.385Z,54.34
2023-02-06T07:42:06.668Z,51.81
2023-02-06T07:45:30.069Z,53.00
2023-02-06T07:48:34.656Z,53.28
2023-02-06T07:51:40.434Z,54.87
2023-02-06T07:54:45.566Z,56.27
2023-02-06T07:57:56.398Z,56.85
2023-02-06T08:01:06.360Z,60.96
2023-02-06T08:04:13.501Z,64.39
2023-02-06T08:07:26.080Z,62.19
2023-02-06T08:10:33.283Z,54.54
2023-02-06T08:14:05.138Z,52.51
2023-02-06T08:17:08.157Z,53.54
2023-02-06T08:20:17.169Z,54.53
2023-02-06T08:23:24.610Z,56.33
2023-02-06T08:26:30.343Z,56.84
2023-02-06T08:29:44.283Z,57.32
2023-02-06T08:33:08.430Z,57.81
2023-02-06T08:36:28.123Z,58.72
2023-02-06T08:39:32.774Z,59.24
2023-02-06T08:42:56.335Z,59.51
2023-02-06T08:46:02.555Z,59.26
2023-02-06T08:49:08.456Z,59.76
2023-02-06T08:52:13.393Z,59.86
2023-02-06T08:55:17.153Z,60.73
2023-02-06T08:58:25.680Z,61.83
2023-02-06T09:01:32.119Z,61.34
2023-02-06T09:04:37.893Z,61.65
2023-02-06T09:07:42.735Z,61.53
2023-02-06T09:10:47.727Z,61.46
2023-02-06T09:13:54.605Z,62.29
2023-02-06T09:16:58.557Z,62.74
2023-02-06T09:20:02.637Z,57.33
2023-02-06T09:23:13.830Z,55.87
2023-02-06T09:26:20.526Z,57.73
2023-02-06T09:29:27.191Z,59.26
2023-02-06T09:32:30.821Z,60.06
2023-02-06T09:35:35.240Z,60.89
2023-02-06T09:38:51.970Z,61.46
2023-02-06T09:42:11.312Z,61.91
2023-02-06T09:45:22.939Z,61.88
2023-02-06T09:48:32.975Z,62.02
2023-02-06T09:52:16.796Z,61.41
2023-02-06T09:56:07.071Z,61.82
2023-02-06T09:59:43.026Z,62.04
2023-02-06T10:03:30.137Z,60.57
2023-02-06T10:06:54.396Z,60.72
2023-02-06T10:11:05.100Z,59.55
2023-02-06T10:14:55.134Z,58.90
2023-02-06T10:18:12.925Z,58.47
2023-02-06T10:21:39.394Z,58.42
2023-02-06T10:25:02.186Z,57.98
2023-02-06T10:28:29.189Z,57.79
2023-02-06T10:32:02.492Z,58.41
2023-02-06T10:35:44.045Z,58.27
2023-02-06T10:39:08.083Z,58.25
2023-02-06T10:42:29.368Z,57.53
2023-02-06T10:45:43.909Z,57.73
2023-02-06T10:48:54.400Z,56.04
2023-02-06T10:52:20.331Z,55.56
2023-02-06T10:55:36.761Z,55.63
2023-02-06T10:58:51.648Z,55.51
2023-02-06T11:02:19.418Z,55.54
2023-02-06T11:05:50.505Z,55.16
2023-02-06T11:08:58.099Z,55.13
2023-02-06T11:12:03.914Z,55.09
2023-02-06T11:15:49.901Z,54.18
2023-02-06T11:19:16.126Z,54.63
2023-02-06T11:22:47.727Z,54.08
2023-02-06T11:26:15.379Z,54.12
2023-02-06T11:29:45.794Z,54.25
2023-02-06T11:33:17.158Z,54.15
2023-02-06T11:36:43.853Z,53.83
2023-02-06T11:39:49.997Z,53.58
2023-02-06T11:43:16.360Z,54.07
2023-02-06T11:46:35.374Z,53.26
2023-02-06T11:49:47.950Z,53.47
2023-02-06T11:53:11.362Z,54.03
2023-02-06T11:56:24.235Z,53.43
2023-02-06T11:59:56.246Z,53.79
2023-02-06T12:03:03.751Z,54.13
2023-02-06T12:06:18.971Z,53.61
2023-02-06T12:09:50.846Z,53.62
2023-02-06T12:13:17.389Z,53.21
2023-02-06T12:16:25.916Z,52.03
2023-02-06T12:19:58.813Z,51.96
2023-02-06T12:23:53.191Z,52.71
2023-02-06T12:27:15.209Z,52.94
2023-02-06T12:30:58.118Z,53.08
2023-02-06T12:34:22.198Z,53.69
2023-02-06T12:37:52.356Z,54.37
2023-02-06T12:41:33.019Z,54.62
2023-02-06T12:44:57.190Z,54.24
2023-02-06T12:48:36.782Z,55.25
2023-02-06T12:52:39.814Z,54.01
2023-02-06T12:56:13.647Z,53.99
2023-02-06T12:59:43.719Z,54.28
2023-02-06T13:03:32.917Z,54.58
2023-02-06T13:07:27.488Z,54.78
2023-02-06T13:10:31.303Z,54.87
2023-02-06T13:13:47.576Z,54.92
2023-02-06T13:17:19.042Z,55.08
2023-02-06T13:21:54.255Z,55.53
2023-02-06T13:25:06.979Z,56.13
2023-02-06T13:28:42.396Z,55.81
2023-02-06T13:32:12.622Z,56.23
2023-02-06T13:35:54.941Z,56.57
2023-02-06T13:39:36.403Z,56.62
2023-02-06T13:43:36.284Z,56.54
2023-02-06T13:47:44.965Z,57.26
2023-02-06T13:50:56.461Z,57.19
2023-02-06T13:54:59.103Z,57.25
2023-02-06T13:58:41.496Z,57.52
2023-02-06T14:02:50.141Z,57.96
2023-02-06T14:15:10.540Z,59.20
2023-02-06T14:18:47.477Z,59.65
2023-02-06T14:22:42.583Z,60.26
2023-02-06T14:27:09.166Z,60.84
2023-02-06T14:31:21.935Z,61.13
2023-02-06T14:35:10.028Z,62.04
2023-02-06T14:39:22.952Z,62.96
2023-02-06T14:43:20.501Z,61.37
2023-02-06T14:46:43.735Z,60.46
2023-02-06T14:50:08.787Z,59.51
2023-02-06T14:54:01.195Z,58.99
2023-02-06T14:57:24.206Z,60.38
2023-02-06T15:00:48.287Z,62.80
2023-02-06T15:04:23.723Z,63.36
2023-02-06T15:07:38.707Z,61.16
2023-02-06T15:10:59.401Z,62.05
2023-02-06T15:15:44.572Z,62.21
2023-02-06T15:19:30.952Z,61.53
2023-02-06T15:23:32.847Z,60.56
2023-02-06T15:27:53.520Z,58.73
2023-02-06T15:31:23.461Z,58.46
2023-02-06T15:35:09.186Z,61.38
2023-02-06T15:38:32.613Z,63.90
2023-02-06T15:42:03.732Z,63.71
2023-02-06T15:45:16.446Z,65.27
2023-02-06T15:49:19.099Z,61.79
2023-02-06T15:52:42.400Z,57.14
2023-02-06T15:56:29.343Z,57.85
2023-02-06T16:00:23.928Z,60.98
2023-02-06T16:03:37.223Z,65.20
2023-02-06T16:07:32.668Z,64.52
2023-02-06T16:11:56.826Z,67.52
2023-02-06T16:15:39.107Z,64.49
2023-02-06T16:19:42.665Z,64.05
2023-02-06T16:23:47.321Z,62.50
2023-02-06T16:27:18.933Z,60.51
2023-02-06T16:31:34.558Z,57.64
2023-02-06T16:34:55.765Z,59.58
2023-02-06T16:38:19.563Z,61.67
2023-02-06T16:41:54.226Z,63.16
2023-02-06T16:45:41.315Z,64.54
2023-02-06T16:49:19.312Z,66.92
2023-02-06T16:53:18.782Z,64.42
2023-02-06T16:56:42.590Z,61.59
2023-02-06T17:00:08.938Z,59.55
2023-02-06T17:03:34.162Z,58.81
2023-02-06T17:07:13.659Z,58.41
2023-02-06T17:10:38.831Z,57.91
2023-02-06T17:14:05.807Z,57.82
2023-02-06T17:17:31.006Z,56.93
2023-02-06T17:20:59.664Z,56.57
2023-02-06T17:24:27.329Z,56.90
2023-02-06T17:28:06.766Z,58.77
2023-02-06T17:31:33.811Z,58.73
2023-02-06T17:34:57.989Z,58.20
2023-02-06T17:38:24.012Z,59.71
2023-02-06T17:41:47.270Z,61.13
2023-02-06T17:45:21.658Z,63.50
2023-02-06T17:49:05.053Z,61.05
2023-02-06T17:52:25.284Z,60.59
2023-02-06T17:55:51.107Z,60.59
2023-02-06T17:59:20.914Z,59.62
2023-02-06T18:03:03.849Z,58.72
2023-02-06T18:06:47.808Z,58.43
2023-02-06T18:10:19.561Z,58.74
2023-02-06T18:13:49.359Z,58.53
2023-02-06T18:17:31.380Z,57.60
2023-02-06T18:20:58.003Z,56.43
2023-02-06T18:24:29.822Z,60.57
2023-02-06T18:27:55.217Z,60.98
2023-02-06T18:31:37.559Z,58.69
2023-02-06T18:35:07.643Z,58.08
2023-02-06T18:38:51.922Z,56.98
2023-02-06T18:42:35.328Z,56.36
2023-02-06T18:46:02.052Z,56.58
2023-02-06T18:49:28.150Z,57.10
2023-02-06T18:52:52.181Z,56.60
2023-02-06T18:56:33.937Z,56.20
2023-02-06T19:00:04.004Z,56.10
2023-02-06T19:03:33.613Z,55.63
2023-02-06T19:06:53.570Z,55.27
2023-02-06T19:10:39.755Z,56.45
2023-02-06T19:14:06.169Z,56.62
2023-02-06T19:17:49.980Z,57.28
2023-02-06T19:21:32.210Z,54.95
2023-02-06T19:25:14.711Z,54.16
2023-02-06T19:28:39.583Z,61.56
2023-02-06T19:32:04.295Z,62.83
2023-02-06T19:35:23.699Z,61.69
2023-02-06T19:38:49.416Z,60.70
2023-02-06T19:42:19.947Z,59.86
2023-02-06T19:45:40.416Z,59.20
2023-02-06T19:49:32.210Z,58.99
2023-02-06T19:52:59.143Z,58.55
2023-02-06T19:56:56.388Z,58.42
2023-02-06T20:00:30.329Z,57.62
2023-02-06T20:03:48.706Z,57.33
2023-02-06T20:07:13.779Z,56.71
2023-02-06T20:10:38.410Z,56.62
2023-02-06T20:14:05.430Z,56.83
2023-02-06T20:17:30.740Z,56.89
2023-02-06T20:20:50.013Z,56.82
2023-02-06T20:24:34.256Z,57.47
2023-02-06T20:28:14.088Z,57.08
2023-02-06T20:31:41.031Z,57.37
2023-02-06T20:35:31.959Z,57.29
2023-02-06T20:38:57.039Z,57.69
2023-02-06T20:42:28.847Z,57.96
2023-02-06T20:45:53.004Z,59.73
2023-02-06T20:49:43.422Z,58.76
2023-02-06T20:53:08.769Z,57.22
2023-02-06T20:56:35.640Z,56.70
2023-02-06T20:59:59.757Z,57.26
2023-02-06T21:03:25.653Z,57.50
2023-02-06T21:06:53.766Z,57.52
2023-02-06T21:10:36.704Z,58.08
2023-02-06T21:14:03.289Z,57.37
2023-02-06T21:17:28.815Z,56.35
2023-02-06T21:21:11.631Z,58.80
2023-02-06T21:24:46.347Z,57.08
2023-02-06T21:28:17.678Z,58.37
2023-02-06T21:31:48.611Z,60.25
2023-02-06T21:35:16.537Z,65.14
2023-02-06T21:39:03.930Z,62.26
2023-02-06T21:42:13.439Z,58.77
2023-02-06T21:45:40.173Z,58.67
2023-02-06T21:49:24.219Z,58.11
2023-02-06T21:52:42.863Z,52.82
2023-02-06T21:56:10.408Z,51.34
2023-02-06T21:59:34.683Z,50.65
2023-02-06T22:02:59.947Z,48.15
2023-02-06T22:09:23.427Z,41.92
2023-02-06T22:12:51.153Z,42.83
2023-02-06T22:16:15.439Z,48.39
2023-02-06T22:19:40.491Z,54.50
2023-02-06T22:23:08.037Z,52.62
2023-02-06T22:26:47.314Z,50.94
2023-02-06T22:30:12.979Z,52.45
2023-02-06T22:34:05.553Z,55.04
2023-02-06T22:37:50.922Z,54.98
2023-02-06T22:41:37.141Z,54.52
2023-02-06T22:45:03.611Z,55.24
2023-02-06T22:48:23.085Z,53.34
2023-02-06T22:51:46.311Z,53.06
2023-02-06T22:55:09.568Z,53.26
2023-02-06T22:58:34.926Z,53.50
2023-02-06T23:02:17.930Z,53.79
2023-02-06T23:14:19.594Z,48.13
2023-02-06T23:17:49.866Z,49.69
2023-02-06T23:21:23.871Z,54.04
2023-02-06T23:24:36.822Z,53.51
2023-02-06T23:28:00.833Z,54.68
2023-02-06T23:31:44.620Z,54.10
2023-02-06T23:35:08.010Z,52.99
2023-02-06T23:38:31.148Z,52.12
2023-02-06T23:41:54.323Z,50.57
2023-02-06T23:45:17.673Z,49.83
2023-02-06T23:48:35.451Z,49.33
2023-02-06T23:52:11.875Z,49.06
2023-02-06T23:58:45.208Z,44.95
